Time;durP1;ratioP1;P1;durP2;ratioP2;P2;SDS_P1;SDS_P2;PMS_P1;PMS_P2;Temp;Humidity;BMP_temperature;BMP_pressure;BME280_temperature;BME280_humidity;BME280_pressure;Samples;Min_cycle;Max_cycle;Signal;HPM_P1;HPM_P2
2021/12/19 00:00:39;;;;;;;30.15;13.43;;;6.10;90.30;;;;;;5028645;28;20037;-69
2021/12/19 00:11:00;;;;;;;32.97;15.50;;;6.00;90.20;;;;;;5020340;28;20076;-69
2021/12/19 00:13:27;;;;;;;35.42;16.50;;;5.90;90.80;;;;;;5026138;28;20030;-70
2021/12/19 00:15:54;;;;;;;33.50;17.02;;;5.90;90.30;;;;;;5029804;28;20086;-70
2021/12/19 00:18:20;;;;;;;31.52;14.32;;;5.90;90.40;;;;;;5033279;28;20036;-69
2021/12/19 00:20:46;;;;;;;27.58;13.35;;;5.90;90.40;;;;;;5029499;28;20123;-69
2021/12/19 00:23:12;;;;;;;29.80;14.02;;;5.80;90.40;;;;;;5028988;28;20048;-70
2021/12/19 00:25:39;;;;;;;29.70;13.88;;;5.80;90.30;;;;;;5029266;28;20476;-70
2021/12/19 00:28:05;;;;;;;28.52;14.10;;;5.70;90.20;;;;;;5029599;28;20033;-70
2021/12/19 00:30:31;;;;;;;29.88;13.95;;;5.70;90.10;;;;;;5032476;28;20033;-69
2021/12/19 00:32:57;;;;;;;31.20;14.43;;;5.70;90.10;;;;;;5031696;28;20029;-69
2021/12/19 00:35:23;;;;;;;31.48;13.70;;;5.60;90.10;;;;;;5029789;28;20034;-69
2021/12/19 00:37:49;;;;;;;31.38;14.15;;;5.60;90.30;;;;;;5031589;28;20025;-69
2021/12/19 00:40:15;;;;;;;29.75;13.57;;;5.50;90.50;;;;;;5030289;28;20034;-70
2021/12/19 00:42:42;;;;;;;29.83;13.55;;;5.50;91.00;;;;;;5031948;28;20021;-69
2021/12/19 00:45:20;;;;;;;27.25;11.98;;;5.50;91.60;;;;;;5034445;28;20506;-69
2021/12/19 00:47:46;;;;;;;26.67;12.48;;;5.60;92.00;;;;;;5030448;28;20075;-70
2021/12/19 00:50:13;;;;;;;28.58;13.02;;;5.60;91.80;;;;;;5029406;28;20466;-69
2021/12/19 00:52:40;;;;;;;28.08;12.30;;;5.70;91.70;;;;;;5036022;28;20022;-69
2021/12/19 00:55:06;;;;;;;27.98;12.88;;;5.60;91.50;;;;;;5037732;28;20026;-69
2021/12/19 00:57:32;;;;;;;23.30;11.70;;;5.60;91.30;;;;;;5034052;28;20457;-69
2021/12/19 00:59:57;;;;;;;26.70;12.77;;;5.60;91.00;;;;;;5033068;28;20120;-69
2021/12/19 01:02:23;;;;;;;30.77;12.70;;;5.50;90.70;;;;;;5032560;28;20117;-69
2021/12/19 01:04:49;;;;;;;23.35;11.18;;;5.40;90.20;;;;;;5034318;28;20032;-69
2021/12/19 01:07:15;;;;;;;24.08;11.00;;;5.30;89.70;;;;;;5033646;28;20064;-69
2021/12/19 01:09:41;;;;;;;23.70;10.90;;;5.20;89.30;;;;;;5030830;28;20472;-69
2021/12/19 01:12:10;;;;;;;26.25;11.38;;;5.10;89.20;;;;;;5031654;28;20037;-69
2021/12/19 01:14:37;;;;;;;25.40;11.63;;;5.10;89.20;;;;;;5030882;28;20033;-69
2021/12/19 01:17:05;;;;;;;24.48;11.10;;;5.00;89.20;;;;;;5028880;28;20035;-69
2021/12/19 01:19:31;;;;;;;21.65;10.95;;;4.90;89.10;;;;;;5035400;28;20045;-69
2021/12/19 01:21:57;;;;;;;25.02;11.48;;;4.90;88.80;;;;;;5035109;28;20091;-69
2021/12/19 01:24:23;;;;;;;23.35;11.55;;;4.80;88.50;;;;;;5038516;28;20083;-69
2021/12/19 01:26:49;;;;;;;22.90;11.30;;;4.80;88.20;;;;;;5035032;28;20033;-69
2021/12/19 01:29:14;;;;;;;23.23;11.00;;;4.80;88.10;;;;;;5035136;28;20100;-69
2021/12/19 01:31:41;;;;;;;26.02;11.43;;;4.70;88.10;;;;;;5031227;28;20134;-69
2021/12/19 01:34:07;;;;;;;19.05;10.18;;;4.70;88.00;;;;;;5033433;28;20033;-69
2021/12/19 01:36:32;;;;;;;21.17;9.82;;;4.60;87.90;;;;;;5035233;28;20021;-69
2021/12/19 01:38:58;;;;;;;21.92;10.80;;;4.60;87.80;;;;;;5031492;28;20489;-69
2021/12/19 01:41:24;;;;;;;24.08;11.35;;;4.60;87.60;;;;;;5033143;28;20413;-69
2021/12/19 01:43:50;;;;;;;22.08;11.02;;;4.50;87.60;;;;;;5035220;28;20025;-69
2021/12/19 01:46:16;;;;;;;20.55;10.10;;;4.50;87.60;;;;;;5037729;28;20025;-69
2021/12/19 01:48:41;;;;;;;19.05;10.30;;;4.40;87.40;;;;;;5034012;28;20041;-69
2021/12/19 01:51:07;;;;;;;21.10;10.35;;;4.40;87.30;;;;;;5036844;28;20120;-69
2021/12/19 01:53:33;;;;;;;19.17;9.85;;;4.40;87.30;;;;;;5028745;28;20050;-69
2021/12/19 01:56:03;;;;;;;20.35;10.50;;;4.30;87.30;;;;;;5030708;28;20396;-69
2021/12/19 01:58:29;;;;;;;20.88;9.95;;;4.30;87.20;;;;;;5032179;28;20415;-69
2021/12/19 02:00:57;;;;;;;22.13;9.88;;;4.30;87.10;;;;;;5026251;28;20041;-69
2021/12/19 02:03:24;;;;;;;22.23;10.18;;;4.30;87.00;;;;;;5030379;28;20052;-69
2021/12/19 02:05:50;;;;;;;24.52;10.82;;;4.20;86.80;;;;;;5030023;28;20049;-69
2021/12/19 02:08:17;;;;;;;20.60;10.18;;;4.20;86.90;;;;;;5024216;28;20037;-69
2021/12/19 02:10:43;;;;;;;20.27;9.88;;;4.10;87.00;;;;;;5028304;28;20025;-69
2021/12/19 02:13:13;;;;;;;21.95;9.77;;;4.10;87.10;;;;;;5028413;28;20377;-69
2021/12/19 02:15:40;;;;;;;20.95;10.27;;;4.10;87.30;;;;;;5026518;28;20022;-69
2021/12/19 02:18:12;;;;;;;24.73;12.43;;;4.00;87.40;;;;;;5028098;28;20030;-69
2021/12/19 02:20:50;;;;;;;28.50;12.07;;;4.00;87.70;;;;;;5024205;28;20048;-69
2021/12/19 02:23:17;;;;;;;25.33;11.75;;;4.00;88.10;;;;;;5024641;28;20484;-69
2021/12/19 02:25:43;;;;;;;22.25;11.27;;;4.00;88.00;;;;;;5024167;28;20469;-69
2021/12/19 02:28:09;;;;;;;23.05;10.27;;;4.00;88.10;;;;;;5027779;28;20037;-69
2021/12/19 02:30:36;;;;;;;22.25;10.23;;;4.00;88.10;;;;;;5028208;28;20021;-69
2021/12/19 02:33:05;;;;;;;25.38;11.60;;;3.90;87.80;;;;;;5030198;28;20025;-69
2021/12/19 02:35:33;;;;;;;23.70;11.15;;;3.90;87.60;;;;;;5031239;28;20092;-69
2021/12/19 02:49:05;;;;;;;21.00;10.50;;;3.70;87.20;;;;;;4994201;28;20040;-69
2021/12/19 02:51:34;;;;;;;20.92;10.98;;;3.70;87.30;;;;;;5004424;28;20065;-69
2021/12/19 02:54:05;;;;;;;26.10;12.25;;;3.60;87.20;;;;;;5008154;28;20029;-69
2021/12/19 02:56:35;;;;;;;24.58;11.68;;;3.60;87.20;;;;;;5011969;28;20570;-69
2021/12/19 02:59:08;;;;;;;26.20;11.87;;;3.60;87.20;;;;;;5005158;28;20033;-70
2021/12/19 03:01:37;;;;;;;25.95;11.63;;;3.50;87.30;;;;;;5008340;28;20149;-69
2021/12/19 03:04:12;;;;;;;20.88;10.90;;;3.50;87.30;;;;;;5006808;28;20030;-69
2021/12/19 03:06:49;;;;;;;20.50;10.13;;;3.50;87.50;;;;;;5007172;28;20073;-69
2021/12/19 03:09:37;;;;;;;22.88;10.02;;;3.50;87.50;;;;;;5009632;28;20051;-69
2021/12/19 03:20:20;;;;;;;20.35;9.77;;;3.30;87.30;;;;;;5019376;28;20056;-68
2021/12/19 03:22:46;;;;;;;24.08;10.95;;;3.20;87.20;;;;;;5026639;28;20022;-68
2021/12/19 03:25:12;;;;;;;27.80;11.70;;;3.20;87.30;;;;;;5026539;28;20022;-68
2021/12/19 03:27:38;;;;;;;26.60;11.00;;;3.10;87.50;;;;;;5029820;28;20441;-68
2021/12/19 03:30:05;;;;;;;26.10;10.82;;;3.10;87.80;;;;;;5029024;28;20099;-68
2021/12/19 03:32:31;;;;;;;20.95;10.27;;;3.10;87.90;;;;;;5027640;28;20497;-68
2021/12/19 03:34:57;;;;;;;19.65;9.45;;;3.10;88.10;;;;;;5025331;28;20034;-68
2021/12/19 03:37:23;;;;;;;20.15;9.35;;;3.10;88.20;;;;;;5038535;28;20029;-68
2021/12/19 03:40:08;;;;;;;20.45;10.02;;;3.10;88.30;;;;;;5031411;28;20021;-68
2021/12/19 03:42:40;;;;;;;23.13;10.80;;;3.10;88.30;;;;;;5026144;28;20083;-68
2021/12/19 03:45:08;;;;;;;27.25;12.38;;;3.10;88.50;;;;;;5031302;28;20029;-68
2021/12/19 03:47:34;;;;;;;27.67;11.93;;;3.10;88.60;;;;;;5026182;28;20057;-68
2021/12/19 03:50:02;;;;;;;27.90;12.63;;;3.10;88.80;;;;;;5030703;28;20030;-68
2021/12/19 03:52:28;;;;;;;26.13;11.38;;;3.10;88.90;;;;;;5030642;28;20021;-68
2021/12/19 03:54:54;;;;;;;23.92;11.10;;;3.00;88.90;;;;;;5032681;28;20048;-68
2021/12/19 03:57:19;;;;;;;22.45;10.60;;;3.00;88.90;;;;;;5033209;28;20503;-68
2021/12/19 03:59:48;;;;;;;25.85;10.55;;;3.00;88.80;;;;;;5030052;28;20404;-68
2021/12/19 04:02:16;;;;;;;26.00;11.32;;;3.00;88.90;;;;;;5032680;28;20475;-68
2021/12/19 04:04:42;;;;;;;24.13;10.55;;;3.00;88.90;;;;;;5037645;28;20029;-68
2021/12/19 04:07:07;;;;;;;23.30;9.90;;;3.00;88.90;;;;;;5030655;28;20026;-68
2021/12/19 04:09:33;;;;;;;23.98;10.18;;;2.90;89.20;;;;;;5038273;28;20068;-68
2021/12/19 04:11:59;;;;;;;26.65;10.70;;;3.00;89.40;;;;;;5031795;28;20090;-68
2021/12/19 04:14:25;;;;;;;21.48;10.27;;;3.00;89.50;;;;;;5035714;28;20045;-68
2021/12/19 04:16:50;;;;;;;24.73;10.65;;;2.90;89.50;;;;;;5037005;28;20037;-68
2021/12/19 04:19:20;;;;;;;26.85;11.27;;;2.90;89.60;;;;;;5032931;28;20021;-68
2021/12/19 04:21:45;;;;;;;23.92;10.38;;;2.90;89.80;;;;;;5036626;28;20053;-68
2021/12/19 04:24:11;;;;;;;24.20;9.80;;;2.80;90.00;;;;;;5033318;28;20123;-68
2021/12/19 04:26:37;;;;;;;24.25;10.15;;;2.80;90.10;;;;;;5031416;28;20025;-68
2021/12/19 04:29:03;;;;;;;24.95;10.85;;;2.80;90.10;;;;;;5033037;28;20040;-68
2021/12/19 04:31:28;;;;;;;26.70;11.23;;;2.80;90.20;;;;;;5030346;28;20041;-68
2021/12/19 04:33:55;;;;;;;30.30;12.13;;;2.80;90.40;;;;;;5030075;28;20460;-68
2021/12/19 04:36:27;;;;;;;36.70;13.13;;;2.80;90.60;;;;;;5032447;28;20071;-68
2021/12/19 04:53:09;;;;;;;44.05;14.02;;;3.10;93.80;;;;;;5030632;28;20040;-68
2021/12/19 05:01:01;;;;;;;35.45;11.15;;;3.30;94.80;;;;;;4970088;28;20626;-68
2021/12/19 05:03:44;;;;;;;34.78;12.68;;;3.40;95.50;;;;;;4985804;28;20046;-68
2021/12/19 05:16:40;;;;;;;34.72;12.13;;;4.50;96.80;;;;;;4973697;28;20026;-68
2021/12/19 05:19:18;;;;;;;38.47;13.63;;;4.60;96.70;;;;;;4964945;28;20044;-68
2021/12/19 05:21:44;;;;;;;48.38;15.77;;;4.70;96.50;;;;;;4970877;28;20035;-68
2021/12/19 05:26:44;;;;;;;49.65;15.90;;;4.80;96.40;;;;;;4969980;28;20449;-68
2021/12/19 05:29:10;;;;;;;40.33;13.88;;;4.80;96.30;;;;;;4970136;28;20026;-68
2021/12/19 05:31:36;;;;;;;48.33;15.20;;;4.90;96.30;;;;;;4971523;28;20590;-68
2021/12/19 05:34:02;;;;;;;46.35;15.10;;;4.90;96.10;;;;;;4976031;28;20114;-67
2021/12/19 05:47:24;;;;;;;53.70;16.50;;;5.10;96.10;;;;;;4987281;28;20061;-68
2021/12/19 05:49:50;;;;;;;41.47;13.35;;;5.20;96.20;;;;;;4989034;28;20050;-68
2021/12/19 05:52:15;;;;;;;42.90;14.80;;;5.20;96.30;;;;;;4990901;28;20084;-68
2021/12/19 05:54:42;;;;;;;38.97;13.98;;;5.20;96.40;;;;;;4989184;28;20030;-68
2021/12/19 05:57:09;;;;;;;30.80;11.60;;;5.30;96.60;;;;;;4993290;28;20440;-68
2021/12/19 05:59:35;;;;;;;52.45;14.88;;;5.30;96.80;;;;;;4989329;28;20034;-68
2021/12/19 06:02:01;;;;;;;46.15;13.52;;;5.40;96.90;;;;;;4991934;28;20405;-68
2021/12/19 06:04:27;;;;;;;41.17;13.23;;;5.40;97.00;;;;;;4989031;28;20038;-69
2021/12/19 06:06:53;;;;;;;40.85;13.45;;;5.40;97.10;;;;;;4989882;28;20411;-68
2021/12/19 06:09:18;;;;;;;39.08;12.63;;;5.40;97.10;;;;;;4990123;28;20038;-69
2021/12/19 06:11:44;;;;;;;33.40;10.98;;;5.50;97.20;;;;;;4992970;28;20069;-68
2021/12/19 06:14:10;;;;;;;36.45;11.20;;;5.50;97.20;;;;;;4988052;28;20038;-68
2021/12/19 06:16:36;;;;;;;36.47;10.68;;;5.60;97.30;;;;;;5021210;28;20124;-69
2021/12/19 06:19:01;;;;;;;36.72;12.40;;;5.60;97.20;;;;;;5031194;28;20392;-68
2021/12/19 06:21:27;;;;;;;36.10;11.38;;;5.70;97.30;;;;;;5019967;28;20114;-68
2021/12/19 06:23:53;;;;;;;36.90;12.10;;;5.70;97.30;;;;;;5026784;28;20125;-68
2021/12/19 06:26:19;;;;;;;28.30;10.85;;;5.70;97.30;;;;;;5023300;28;20680;-68
2021/12/19 06:28:45;;;;;;;40.75;12.73;;;5.70;97.30;;;;;;5027090;28;20100;-68
2021/12/19 06:31:11;;;;;;;41.67;12.73;;;5.80;97.40;;;;;;5026705;28;20064;-68
2021/12/19 06:33:36;;;;;;;45.53;13.95;;;5.80;97.30;;;;;;5030242;28;20030;-68
2021/12/19 06:36:03;;;;;;;45.30;13.68;;;5.80;97.40;;;;;;5026847;28;20575;-68
2021/12/19 06:38:29;;;;;;;39.58;12.48;;;5.90;97.40;;;;;;5026663;28;20136;-68
2021/12/19 06:40:55;;;;;;;38.33;12.43;;;5.90;97.40;;;;;;5026340;28;20455;-68
2021/12/19 06:43:21;;;;;;;44.45;13.95;;;5.90;97.40;;;;;;5028464;28;20032;-68
2021/12/19 06:45:47;;;;;;;31.50;10.18;;;5.90;97.40;;;;;;5028389;28;20036;-68
2021/12/19 06:48:13;;;;;;;38.67;12.27;;;6.00;97.50;;;;;;5031115;28;20135;-68
2021/12/19 06:50:39;;;;;;;45.33;13.75;;;6.00;97.50;;;;;;5024735;28;20488;-68
2021/12/19 06:53:05;;;;;;;46.63;15.07;;;6.00;97.50;;;;;;5025351;28;20055;-69
2021/12/19 06:55:32;;;;;;;41.22;13.15;;;6.00;97.50;;;;;;5018010;28;20051;-68
2021/12/19 06:57:58;;;;;;;34.00;12.43;;;6.00;97.50;;;;;;5027391;28;20030;-68
2021/12/19 07:00:25;;;;;;;44.17;14.00;;;6.00;97.50;;;;;;5029577;28;20118;-68
2021/12/19 07:02:53;;;;;;;37.60;12.50;;;6.10;97.60;;;;;;5025875;28;20342;-67
2021/12/19 07:05:19;;;;;;;35.85;13.07;;;6.10;97.50;;;;;;5025758;28;20037;-69
2021/12/19 07:07:45;;;;;;;41.45;13.57;;;6.10;97.50;;;;;;5026805;28;20104;-69
2021/12/19 07:10:11;;;;;;;31.50;10.88;;;6.10;97.50;;;;;;5027294;28;20124;-70
2021/12/19 07:12:37;;;;;;;33.72;11.48;;;6.20;97.60;;;;;;5036121;28;20017;-70
2021/12/19 07:15:05;;;;;;;42.03;13.32;;;6.20;97.60;;;;;;5029879;28;20038;-71
2021/12/19 07:17:31;;;;;;;40.55;12.38;;;6.20;97.50;;;;;;5023062;28;20029;-69
2021/12/19 07:19:57;;;;;;;38.47;12.25;;;6.20;97.50;;;;;;5026592;28;20032;-70
2021/12/19 07:22:28;;;;;;;36.50;12.15;;;6.30;97.50;;;;;;5013885;28;20033;-70
2021/12/19 07:24:54;;;;;;;31.67;10.82;;;6.30;97.50;;;;;;5026962;28;20030;-70
2021/12/19 07:27:20;;;;;;;27.13;9.70;;;6.30;97.50;;;;;;5022922;28;20116;-71
2021/12/19 07:29:47;;;;;;;36.33;12.07;;;6.30;97.50;;;;;;5027281;28;20033;-70
2021/12/19 07:32:13;;;;;;;39.00;12.63;;;6.30;97.50;;;;;;5028488;28;20099;-68
2021/12/19 07:34:40;;;;;;;31.95;11.60;;;6.30;97.40;;;;;;5027806;28;20021;-70
2021/12/19 07:37:06;;;;;;;27.35;10.32;;;6.40;97.50;;;;;;5029292;28;20107;-71
2021/12/19 07:42:08;;;;;;;30.80;10.95;;;6.40;97.40;;;;;;5027900;28;20057;-70
2021/12/19 07:44:35;;;;;;;35.20;12.15;;;6.40;97.40;;;;;;5023048;28;20052;-70
2021/12/19 07:47:01;;;;;;;29.10;10.88;;;6.40;97.30;;;;;;5023069;28;20041;-70
2021/12/19 07:49:27;;;;;;;22.40;9.00;;;6.50;97.30;;;;;;5024946;28;20064;-70
2021/12/19 07:51:52;;;;;;;31.20;10.68;;;6.50;97.40;;;;;;5025217;28;20037;-70
2021/12/19 07:54:18;;;;;;;36.70;11.98;;;6.50;97.30;;;;;;5031618;28;20500;-71
2021/12/19 07:56:45;;;;;;;35.35;12.00;;;6.50;97.30;;;;;;5028653;28;20111;-70
2021/12/19 07:59:11;;;;;;;29.27;10.55;;;6.50;97.30;;;;;;5026836;28;20492;-71
2021/12/19 08:01:37;;;;;;;36.60;12.18;;;6.60;97.40;;;;;;5029476;28;20036;-71
2021/12/19 08:06:19;;;;;;;23.52;8.10;;;6.60;97.00;;;;;;5061793;28;20479;-72
2021/12/19 08:08:52;;;;;;;30.40;12.02;;;6.60;97.30;;;;;;5045590;28;20032;-72
2021/12/19 08:14:03;;;;;;;35.80;12.70;;;6.70;97.30;;;;;;5047543;28;20131;-72
2021/12/19 08:16:29;;;;;;;30.77;10.68;;;6.70;97.30;;;;;;5045586;28;20040;-71
2021/12/19 08:18:55;;;;;;;33.80;11.63;;;6.70;97.20;;;;;;5052653;28;20037;-72
2021/12/19 08:21:21;;;;;;;31.33;10.70;;;6.70;97.20;;;;;;5051050;28;20105;-72
2021/12/19 08:23:47;;;;;;;34.30;12.30;;;6.70;97.20;;;;;;5043235;28;20034;-71
2021/12/19 08:26:13;;;;;;;32.78;12.32;;;6.70;97.20;;;;;;5048592;28;20061;-71
2021/12/19 08:28:39;;;;;;;34.25;11.68;;;6.80;97.20;;;;;;5044586;28;20030;-73
2021/12/19 08:31:05;;;;;;;34.38;12.23;;;6.80;97.10;;;;;;5057893;28;20117;-72
2021/12/19 08:33:32;;;;;;;133.98;64.75;;;6.80;97.10;;;;;;5046964;28;20124;-72
2021/12/19 08:35:59;;;;;;;34.90;14.27;;;6.80;97.10;;;;;;5049254;28;20147;-72
2021/12/19 08:38:25;;;;;;;74.25;32.28;;;6.90;97.10;;;;;;5036192;28;20529;-71
2021/12/19 08:40:52;;;;;;;31.42;12.30;;;6.90;97.00;;;;;;5037624;28;20060;-71
2021/12/19 08:43:19;;;;;;;74.50;35.03;;;6.90;97.00;;;;;;5029527;28;20493;-71
2021/12/19 08:45:45;;;;;;;105.35;47.92;;;6.90;96.90;;;;;;5052463;28;20045;-72
2021/12/19 08:48:11;;;;;;;135.25;61.58;;;7.00;96.90;;;;;;5045387;28;20575;-72
2021/12/19 08:50:37;;;;;;;42.00;19.05;;;7.00;96.80;;;;;;5034207;28;20026;-72
2021/12/19 08:53:03;;;;;;;55.50;23.02;;;7.00;96.80;;;;;;5037068;28;20021;-72
2021/12/19 08:55:29;;;;;;;137.50;59.22;;;7.00;96.70;;;;;;5041985;28;20021;-71
2021/12/19 08:57:55;;;;;;;221.57;81.53;;;7.10;96.60;;;;;;5052032;28;20036;-71
2021/12/19 09:00:21;;;;;;;121.03;46.38;;;7.10;96.50;;;;;;5051266;28;20047;-71
2021/12/19 09:02:51;;;;;;;195.93;76.18;;;7.10;96.50;;;;;;5050722;28;20021;-71
2021/12/19 09:05:18;;;;;;;190.20;75.38;;;7.20;96.40;;;;;;5045323;28;20424;-71
2021/12/19 09:07:43;;;;;;;78.13;32.08;;;7.20;96.40;;;;;;5034985;28;20017;-71
2021/12/19 09:10:11;;;;;;;108.43;45.90;;;7.20;96.20;;;;;;5028819;28;20059;-71
2021/12/19 09:12:37;;;;;;;211.13;76.47;;;7.20;96.20;;;;;;5037170;28;20396;-71
2021/12/19 09:15:05;;;;;;;215.05;87.35;;;7.30;96.10;;;;;;5047807;28;20035;-71
2021/12/19 09:17:31;;;;;;;241.70;85.90;;;7.30;95.90;;;;;;5025687;28;20109;-71
2021/12/19 09:19:57;;;;;;;172.75;63.03;;;7.40;95.80;;;;;;5027961;28;20104;-70
2021/12/19 09:22:23;;;;;;;121.70;45.15;;;7.40;95.70;;;;;;5041936;28;20759;-71
2021/12/19 09:24:49;;;;;;;427.73;151.25;;;7.40;95.70;;;;;;5017870;28;20052;-71
2021/12/19 09:27:15;;;;;;;229.73;96.88;;;7.40;95.70;;;;;;5018126;28;20481;-71
2021/12/19 09:29:41;;;;;;;163.05;68.72;;;7.50;95.70;;;;;;5023592;28;20043;-71
2021/12/19 09:32:07;;;;;;;232.25;85.70;;;7.50;95.70;;;;;;5040168;28;20492;-71
2021/12/19 09:34:33;;;;;;;92.32;37.70;;;7.50;95.70;;;;;;5028736;28;20037;-71
2021/12/19 09:37:00;;;;;;;132.20;53.20;;;7.50;95.70;;;;;;5048455;28;20038;-71
2021/12/19 09:39:26;;;;;;;194.32;76.25;;;7.60;95.70;;;;;;5035501;28;20036;-71
2021/12/19 09:41:55;;;;;;;84.75;33.25;;;7.60;95.60;;;;;;5035546;28;20479;-72
2021/12/19 09:44:21;;;;;;;49.70;19.80;;;7.60;95.40;;;;;;5025015;28;20041;-71
2021/12/19 09:46:49;;;;;;;45.53;18.02;;;7.70;95.40;;;;;;5032274;28;20033;-71
2021/12/19 09:49:18;;;;;;;21.75;9.35;;;7.70;95.10;;;;;;5035406;28;20556;-71
2021/12/19 09:51:45;;;;;;;158.27;44.72;;;7.80;94.90;;;;;;5028640;28;20033;-70
2021/12/19 09:54:12;;;;;;;153.30;54.03;;;7.80;94.70;;;;;;5035136;28;20021;-71
2021/12/19 09:56:39;;;;;;;133.55;47.75;;;7.80;94.60;;;;;;5024268;28;20026;-71
2021/12/19 09:59:17;;;;;;;88.05;35.85;;;7.90;94.50;;;;;;5016843;28;20029;-71
2021/12/19 10:01:43;;;;;;;32.22;13.88;;;7.90;94.50;;;;;;5022193;28;20025;-71
2021/12/19 10:04:28;;;;;;;28.77;12.70;;;8.00;94.40;;;;;;5018146;28;20043;-71
2021/12/19 10:07:14;;;;;;;102.43;38.63;;;8.00;94.30;;;;;;5037623;28;20043;-71
2021/12/19 10:10:05;;;;;;;90.93;36.92;;;8.00;94.20;;;;;;5041991;28;20025;-71
2021/12/19 10:15:04;;;;;;;136.63;58.72;;;8.10;94.00;;;;;;5022135;28;20383;-71
2021/12/19 10:17:30;;;;;;;;;;;8.10;93.70;;;;;;5033896;28;20105;-71
2021/12/19 10:20:03;;;;;;;193.15;73.65;;;8.10;93.40;;;;;;5025081;28;19995;-71
2021/12/19 10:22:33;;;;;;;24.67;10.13;;;8.20;93.40;;;;;;5015897;28;20033;-72
2021/12/19 10:25:12;;;;;;;81.93;31.07;;;8.10;93.10;;;;;;5020243;28;20052;-69
2021/12/19 10:27:53;;;;;;;159.43;51.22;;;8.10;93.10;;;;;;5058595;28;20037;-71
2021/12/19 10:30:21;;;;;;;182.35;59.75;;;8.20;93.20;;;;;;5061852;28;20104;-71
2021/12/19 10:32:59;;;;;;;311.25;92.22;;;8.20;93.20;;;;;;5022056;28;20083;-70
2021/12/19 10:35:39;;;;;;;326.10;101.40;;;8.20;93.20;;;;;;5022742;28;20121;-71
2021/12/19 10:38:13;;;;;;;114.65;42.47;;;8.30;93.20;;;;;;5025378;28;20045;-71
2021/12/19 10:40:43;;;;;;;89.20;32.53;;;8.30;93.10;;;;;;5018287;28;20029;-72
2021/12/19 10:43:16;;;;;;;161.27;58.25;;;8.30;93.10;;;;;;5013533;28;20031;-71
2021/12/19 10:45:54;;;;;;;166.38;63.70;;;8.30;93.40;;;;;;5015115;28;20736;-71
2021/12/19 10:48:34;;;;;;;55.33;24.92;;;8.40;93.00;;;;;;5029692;28;20037;-71
2021/12/19 10:51:16;;;;;;;32.45;13.90;;;8.40;92.90;;;;;;5031259;28;20111;-72
2021/12/19 10:53:53;;;;;;;88.38;38.25;;;8.50;92.90;;;;;;5034853;28;20412;-71
2021/12/19 10:56:26;;;;;;;159.52;77.32;;;8.50;92.70;;;;;;5037852;28;20049;-70
2021/12/19 10:58:57;;;;;;;76.28;34.03;;;8.50;92.80;;;;;;5037097;28;20120;-71
2021/12/19 11:01:41;;;;;;;103.07;47.80;;;8.50;92.70;;;;;;5041557;28;20034;-70
2021/12/19 11:04:17;;;;;;;124.20;55.08;;;8.50;92.60;;;;;;5067561;28;20079;-68
2021/12/19 11:06:48;;;;;;;151.57;70.95;;;8.60;92.50;;;;;;5036538;28;20029;-71
2021/12/19 11:09:26;;;;;;;55.80;27.45;;;8.50;92.50;;;;;;5035352;28;20191;-70
2021/12/19 11:11:53;;;;;;;27.90;13.40;;;8.50;92.50;;;;;;5018614;28;20111;-70
2021/12/19 11:14:40;;;;;;;20.98;10.27;;;8.50;92.60;;;;;;5029864;28;20040;-71
2021/12/19 11:17:15;;;;;;;77.00;39.85;;;8.50;92.60;;;;;;5038813;28;20154;-71
2021/12/19 11:19:42;;;;;;;22.73;11.13;;;8.60;92.60;;;;;;5046219;28;20048;-71
2021/12/19 11:22:09;;;;;;;97.40;42.28;;;8.60;92.40;;;;;;5037791;28;20029;-71
2021/12/19 11:24:35;;;;;;;53.05;23.60;;;8.60;92.40;;;;;;5024780;28;20036;-71
2021/12/19 11:27:04;;;;;;;157.45;64.75;;;8.70;92.40;;;;;;5018474;28;20061;-72
2021/12/19 11:29:30;;;;;;;88.40;41.92;;;8.70;92.40;;;;;;5029736;28;20017;-71
2021/12/19 11:32:01;;;;;;;20.23;9.25;;;8.80;92.30;;;;;;5024790;28;20036;-70
2021/12/19 11:34:30;;;;;;;;;;;8.80;92.10;;;;;;5041658;28;20021;-70
2021/12/19 11:37:05;;;;;;;30.67;13.18;;;8.90;92.00;;;;;;5027632;28;19924;-70
2021/12/19 11:39:37;;;;;;;77.07;34.35;;;8.90;91.80;;;;;;5034331;28;20032;-71
2021/12/19 11:42:15;;;;;;;22.42;10.40;;;8.90;91.60;;;;;;5039454;28;20029;-71
2021/12/19 11:47:43;;;;;;;158.07;57.92;;;8.90;91.60;;;;;;5032737;28;20017;-70
2021/12/19 11:50:10;;;;;;;110.93;39.97;;;8.90;91.50;;;;;;5038449;28;20032;-70
2021/12/19 11:52:36;;;;;;;64.55;26.58;;;8.90;91.50;;;;;;5039124;28;20034;-70
2021/12/19 11:55:14;;;;;;;62.38;26.27;;;8.90;91.00;;;;;;5022499;28;20552;-71
2021/12/19 11:58:03;;;;;;;19.73;9.23;;;8.90;91.00;;;;;;5035618;28;20118;-72
2021/12/19 12:00:32;;;;;;;39.83;18.10;;;9.00;90.90;;;;;;5030784;28;20029;-71
2021/12/19 12:03:13;;;;;;;34.30;15.82;;;9.00;90.80;;;;;;5034017;28;20068;-70
2021/12/19 12:05:45;;;;;;;;;;;9.20;90.70;;;;;;5036586;28;20094;-71
2021/12/19 12:08:22;;;;;;;81.22;28.52;;;9.20;90.50;;;;;;5024926;28;19916;-69
2021/12/19 12:10:51;;;;;;;69.72;26.30;;;9.20;90.10;;;;;;5036902;28;20017;-72
2021/12/19 12:13:25;;;;;;;60.15;25.48;;;9.20;90.10;;;;;;5039255;28;20113;-72
2021/12/19 12:15:58;;;;;;;79.05;27.73;;;9.30;90.00;;;;;;5037484;28;20028;-71
2021/12/19 12:18:34;;;;;;;35.10;15.43;;;9.30;89.50;;;;;;5039264;28;20591;-72
2021/12/19 12:21:22;;;;;;;16.90;8.20;;;9.30;89.70;;;;;;5030047;28;20027;-70
2021/12/19 12:23:54;;;;;;;11.23;5.55;;;9.40;89.80;;;;;;5027396;28;20021;-71
2021/12/19 12:26:33;;;;;;;11.85;5.55;;;9.40;89.20;;;;;;5031186;28;20056;-71
2021/12/19 12:28:59;;;;;;;49.88;23.50;;;9.40;89.30;;;;;;5024576;28;20049;-71
2021/12/19 12:31:25;;;;;;;12.73;6.03;;;9.50;89.40;;;;;;5019268;28;20064;-70
2021/12/19 12:33:51;;;;;;;13.35;6.18;;;9.60;89.30;;;;;;5030162;28;20020;-71
2021/12/19 12:36:18;;;;;;;25.58;10.80;;;9.60;89.40;;;;;;5038889;28;20059;-71
2021/12/19 12:38:49;;;;;;;27.77;12.55;;;9.60;89.40;;;;;;5038205;28;20512;-70
2021/12/19 12:41:29;;;;;;;;;;;9.60;89.40;;;;;;5037723;28;20026;-71
2021/12/19 12:44:03;;;;;;;20.35;9.80;;;9.60;89.40;;;;;;5015399;28;19913;-71
2021/12/19 12:46:29;;;;;;;13.93;7.38;;;9.60;89.50;;;;;;5041151;28;20080;-71
2021/12/19 12:48:57;;;;;;;23.75;11.50;;;9.60;89.40;;;;;;5025354;28;20022;-72
2021/12/19 12:51:43;;;;;;;15.23;7.32;;;9.60;89.30;;;;;;5029478;28;20413;-71
2021/12/19 12:54:18;;;;;;;67.55;29.50;;;9.50;88.30;;;;;;5016794;28;20671;-71
2021/12/19 12:56:49;;;;;;;35.03;15.05;;;9.60;88.70;;;;;;5021610;28;20075;-70
2021/12/19 12:59:17;;;;;;;68.63;25.98;;;9.70;87.30;;;;;;5021224;28;20025;-71
2021/12/19 13:01:52;;;;;;;47.45;18.30;;;9.80;86.80;;;;;;5014345;28;20034;-71
2021/12/19 13:04:23;;;;;;;36.63;14.65;;;9.90;86.40;;;;;;5030005;28;20037;-71
2021/12/19 13:07:04;;;;;;;54.42;20.92;;;10.00;85.40;;;;;;5047541;28;20392;-71
2021/12/19 13:09:33;;;;;;;40.58;16.63;;;9.90;85.30;;;;;;5042283;28;20063;-70
2021/12/19 13:12:06;;;;;;;44.63;18.83;;;9.90;85.30;;;;;;5039711;28;20036;-71
2021/12/19 13:14:35;;;;;;;121.68;44.22;;;9.80;85.10;;;;;;5039229;28;20110;-70
2021/12/19 13:17:07;;;;;;;25.23;10.55;;;9.70;86.10;;;;;;5041771;28;20487;-71
2021/12/19 13:19:36;;;;;;;11.57;6.10;;;9.70;86.30;;;;;;5041371;28;20048;-72
2021/12/19 13:22:09;;;;;;;18.13;10.32;;;9.70;86.90;;;;;;5028412;28;20079;-72
2021/12/19 13:24:36;;;;;;;14.30;8.20;;;9.60;87.60;;;;;;5031112;28;20535;-72
2021/12/19 13:27:06;;;;;;;19.63;10.43;;;9.60;87.90;;;;;;5040918;28;20037;-68
2021/12/19 13:29:32;;;;;;;17.77;9.20;;;9.50;88.30;;;;;;5021667;28;20034;-70
2021/12/19 13:32:26;;;;;;;13.38;7.30;;;9.50;88.70;;;;;;5023296;28;20037;-72
2021/12/19 13:34:52;;;;;;;13.55;7.63;;;9.50;88.70;;;;;;5026655;28;20033;-69
2021/12/19 13:37:19;;;;;;;11.00;6.00;;;9.50;88.40;;;;;;5042661;28;20381;-80
2021/12/19 13:39:56;;;;;;;9.82;5.03;;;9.40;88.30;;;;;;5036952;28;20021;-82
2021/12/19 13:42:22;;;;;;;13.98;7.00;;;9.40;88.40;;;;;;5021266;28;20041;-82
2021/12/19 13:44:48;;;;;;;9.93;5.40;;;9.40;89.10;;;;;;5034522;28;20049;-81
2021/12/19 13:47:24;;;;;;;13.55;7.75;;;9.40;88.20;;;;;;5030176;28;20038;-82
2021/12/19 13:49:50;;;;;;;10.80;5.50;;;9.30;88.40;;;;;;5027816;28;20049;-81
2021/12/19 13:52:18;;;;;;;24.20;11.43;;;9.30;88.20;;;;;;5020438;28;20033;-81
2021/12/19 13:54:43;;;;;;;35.67;17.98;;;9.30;87.50;;;;;;5033538;28;20029;-81
2021/12/19 13:57:21;;;;;;;22.08;11.00;;;9.30;87.60;;;;;;5047448;28;20771;-81
2021/12/19 13:59:48;;;;;;;63.22;30.23;;;9.30;88.10;;;;;;5033474;28;20034;-81
2021/12/19 14:02:14;;;;;;;44.45;19.17;;;9.20;88.30;;;;;;5029725;28;20026;-80
2021/12/19 14:04:41;;;;;;;50.25;28.52;;;9.20;88.60;;;;;;5028651;28;20052;-80
2021/12/19 14:07:11;;;;;;;28.15;16.10;;;9.20;88.80;;;;;;5028632;28;20032;-78
2021/12/19 14:09:42;;;;;;;14.90;9.52;;;9.30;89.00;;;;;;5028630;28;20122;-78